createdAt,value
2016-12-01T00:00:59.573Z,20.1
2016-12-01T00:01:59.608Z,20.17
2016-12-01T00:02:59.938Z,20.01
2016-12-01T00:03:59.674Z,20.11
2016-12-01T00:04:59.696Z,20.03
2016-12-01T00:05:59.409Z,20.06
2016-12-01T00:06:59.741Z,20.05
2016-12-01T00:07:59.461Z,20.11
2016-12-01T00:08:59.798Z,19.99
2016-12-01T00:10:00.124Z,20.06
2016-12-01T00:10:59.855Z,20.06
2016-12-01T00:11:59.876Z,20.01
2016-12-01T00:12:59.897Z,20.03
2016-12-01T00:13:59.617Z,20.06
2016-12-01T00:14:59.650Z,19.91
2016-12-01T00:15:59.982Z,19.95
2016-12-01T00:16:59.712Z,19.98
2016-12-01T00:18:00.344Z,19.95
2016-12-01T00:19:00.362Z,19.98
2016-12-01T00:19:59.790Z,19.94
2016-12-01T00:21:00.420Z,19.94
2016-12-01T00:21:59.839Z,20.01
2016-12-01T00:23:00.468Z,19.92
2016-12-01T00:24:00.526Z,19.94
2016-12-01T00:25:00.229Z,19.98
2016-12-01T00:25:59.960Z,19.91
2016-12-01T00:26:59.972Z,19.96
2016-12-01T00:28:00.611Z,19.87
2016-12-01T00:29:00.029Z,19.88
2016-12-01T00:30:00.059Z,19.88
2016-12-01T00:31:00.687Z,19.87
2016-12-01T00:32:00.116Z,19.84
2016-12-01T00:33:00.132Z,19.84
2016-12-01T00:34:00.473Z,19.81
2016-12-01T00:35:00.811Z,19.83
2016-12-01T00:36:00.553Z,19.84
2016-12-01T00:37:00.248Z,19.83
2016-12-01T00:38:00.584Z,19.87
2016-12-01T00:39:00.600Z,19.81
2016-12-01T00:40:00.634Z,19.81
2016-12-01T00:41:00.646Z,19.76
2016-12-01T00:42:00.683Z,19.77
2016-12-01T00:43:00.704Z,19.76
2016-12-01T00:44:01.037Z,19.83
2016-12-01T00:45:00.457Z,19.69
2016-12-01T00:46:00.786Z,19.73
2016-12-01T00:47:00.523Z,19.71
2016-12-01T00:48:01.140Z,19.78
2016-12-01T00:49:00.565Z,19.77
2016-12-01T00:50:00.594Z,19.68
2016-12-01T00:51:01.228Z,19.66
2016-12-01T00:52:00.642Z,19.68
2016-12-01T00:53:01.275Z,19.61
2016-12-01T00:54:01.005Z,19.63
2016-12-01T00:55:00.728Z,19.68
2016-12-01T00:56:01.062Z,19.62
2016-12-01T00:57:01.075Z,19.61
2016-12-01T00:58:01.115Z,19.62
2016-12-01T00:59:01.440Z,19.58
2016-12-01T01:00:01.157Z,19.58
2016-12-01T01:01:00.885Z,19.58
2016-12-01T01:02:00.910Z,19.51
2016-12-01T01:03:00.939Z,19.5
2016-12-01T01:04:01.292Z,19.48
2016-12-01T01:05:01.605Z,19.51
2016-12-01T01:06:01.037Z,19.55
2016-12-01T01:07:01.045Z,19.54
2016-12-01T01:08:01.376Z,19.55
2016-12-01T01:09:01.087Z,19.47
2016-12-01T01:10:01.428Z,19.55
2016-12-01T01:11:01.449Z,19.5
2016-12-01T01:12:01.486Z,19.48
2016-12-01T01:13:01.199Z,19.46
2016-12-01T01:14:01.535Z,19.48
2016-12-01T01:15:01.260Z,19.46
2016-12-01T01:16:01.281Z,19.46
2016-12-01T01:17:01.609Z,19.37
2016-12-01T01:18:01.331Z,19.44
2016-12-01T01:19:01.367Z,19.47
2016-12-01T01:20:01.690Z,19.4
2016-12-01T01:21:01.437Z,19.43
2016-12-01T01:22:01.437Z,19.44
2016-12-01T01:23:01.470Z,19.46
2016-12-01T01:24:01.798Z,19.41
2016-12-01T01:25:01.824Z,19.5
2016-12-01T01:26:02.165Z,19.46
2016-12-01T01:27:01.882Z,19.32
2016-12-01T01:28:01.897Z,19.43
2016-12-01T01:29:01.946Z,19.37
2016-12-01T01:30:01.654Z,19.4
2016-12-01T01:31:01.984Z,19.43
2016-12-01T01:32:01.709Z,19.39
2016-12-01T01:33:02.030Z,19.4
2016-12-01T01:34:01.758Z,19.32
2016-12-01T01:35:01.808Z,19.4
2016-12-01T01:36:01.804Z,19.23
2016-12-01T01:37:02.141Z,19.26
2016-12-01T01:38:02.162Z,19.31
2016-12-01T01:39:01.890Z,19.36
2016-12-01T01:40:01.922Z,19.25
2016-12-01T01:41:02.247Z,19.29
2016-12-01T01:42:01.973Z,19.26
2016-12-01T01:43:01.994Z,19.25
2016-12-01T01:44:02.023Z,19.23
2016-12-01T01:45:02.052Z,19.28
2016-12-01T01:46:02.077Z,19.31
2016-12-01T01:47:02.407Z,19.22
2016-12-01T01:48:02.130Z,19.32
2016-12-01T01:49:02.463Z,19.18
2016-12-01T01:50:02.196Z,19.22
2016-12-01T01:51:02.212Z,19.14
2016-12-01T01:52:02.555Z,19.19
2016-12-01T01:53:02.566Z,19.26
2016-12-01T01:54:02.611Z,19.32
2016-12-01T01:55:02.616Z,19.18
2016-12-01T01:56:02.964Z,19.14
2016-12-01T01:57:02.673Z,19.14
2016-12-01T01:58:02.401Z,19.16
2016-12-01T01:59:03.026Z,19.14
2016-12-01T02:00:02.758Z,19.16
2016-12-01T02:01:02.473Z,19.18
2016-12-01T02:02:03.130Z,19.08
2016-12-01T02:03:02.834Z,19.11
2016-12-01T02:04:03.175Z,19.16
2016-12-01T02:05:03.199Z,19.13
2016-12-01T02:06:02.620Z,19.16
2016-12-01T02:07:02.633Z,19.04
2016-12-01T02:08:02.970Z,19.1
2016-12-01T02:09:03.288Z,19.13
2016-12-01T02:10:03.036Z,19.19
2016-12-01T02:11:03.043Z,19.04
2016-12-01T02:12:03.065Z,19.08
2016-12-01T02:13:03.106Z,19.11
2016-12-01T02:14:02.835Z,19.13
2016-12-01T02:15:03.148Z,19.14
2016-12-01T02:16:03.180Z,19.16
2016-12-01T02:17:02.906Z,19.13
2016-12-01T02:18:03.226Z,19.08
2016-12-01T02:19:02.946Z,19.16
2016-12-01T02:20:02.971Z,19.18
2016-12-01T02:21:03.312Z,19.08
2016-12-01T02:22:03.033Z,19.08
2016-12-01T02:23:03.359Z,19.13
2016-12-01T02:24:03.379Z,19.1
2016-12-01T02:25:03.099Z,19.1
2016-12-01T02:26:03.753Z,19.06
2016-12-01T02:27:03.464Z,19.02
2016-12-01T02:28:03.490Z,18.98
2016-12-01T02:29:03.218Z,18.99
2016-12-01T02:30:03.547Z,19.07
2016-12-01T02:31:03.266Z,18.99
2016-12-01T02:32:03.291Z,18.99
2016-12-01T02:33:03.629Z,19
2016-12-01T02:34:03.333Z,19.07
2016-12-01T02:35:03.367Z,18.9
2016-12-01T02:36:03.400Z,18.98
2016-12-01T02:37:03.729Z,18.87
2016-12-01T02:38:03.450Z,18.95
2016-12-01T02:39:03.465Z,19
2016-12-01T02:40:03.527Z,18.94
2016-12-01T02:41:03.836Z,18.91
2016-12-01T02:42:03.553Z,18.92
2016-12-01T02:43:03.886Z,18.95
2016-12-01T02:44:04.213Z,18.9
2016-12-01T02:45:03.947Z,18.99
2016-12-01T02:46:03.659Z,18.92
2016-12-01T02:47:03.676Z,18.92
2016-12-01T02:48:04.329Z,18.92
2016-12-01T02:49:03.739Z,18.88
2016-12-01T02:50:03.764Z,18.88
2016-12-01T02:51:03.797Z,18.92
2016-12-01T02:52:03.825Z,18.9
2016-12-01T02:53:03.845Z,18.88
2016-12-01T02:54:04.187Z,18.92
2016-12-01T02:55:04.197Z,18.81
2016-12-01T02:56:04.225Z,18.84
2016-12-01T02:57:04.249Z,18.88
2016-12-01T02:58:04.586Z,18.84
2016-12-01T02:59:04.319Z,18.81
2016-12-01T03:00:04.032Z,18.85
2016-12-01T03:01:04.352Z,18.8
2016-12-01T03:02:04.689Z,18.8
2016-12-01T03:03:04.417Z,18.82
2016-12-01T03:04:04.739Z,18.82
2016-12-01T03:05:04.453Z,18.91
2016-12-01T03:06:04.208Z,18.75
2016-12-01T03:07:04.205Z,18.76
2016-12-01T03:08:04.563Z,18.82
2016-12-01T03:09:04.864Z,18.8
2016-12-01T03:10:04.320Z,18.8
2016-12-01T03:11:04.620Z,18.82
2016-12-01T03:12:04.654Z,18.82
2016-12-01T03:13:04.980Z,18.78
2016-12-01T03:14:04.983Z,18.84
2016-12-01T03:15:04.724Z,18.85
2016-12-01T03:16:04.748Z,18.78
2016-12-01T03:17:04.461Z,18.78
2016-12-01T03:18:05.106Z,18.82
2016-12-01T03:19:04.823Z,18.75
2016-12-01T03:20:04.856Z,18.75
2016-12-01T03:21:04.872Z,18.81
2016-12-01T03:22:05.237Z,18.76
2016-12-01T03:23:04.626Z,18.78
2016-12-01T03:24:04.970Z,18.8
2016-12-01T03:25:04.981Z,18.81
2016-12-01T03:26:05.025Z,18.75
2016-12-01T03:27:05.038Z,18.78
2016-12-01T03:28:05.364Z,18.75
2016-12-01T03:29:05.091Z,18.76
2016-12-01T03:30:05.432Z,18.8
2016-12-01T03:31:05.144Z,18.76
2016-12-01T03:32:05.169Z,18.73
2016-12-01T03:33:05.498Z,18.76
2016-12-01T03:34:04.924Z,18.7
2016-12-01T03:35:05.243Z,18.72
2016-12-01T03:36:05.290Z,18.7
2016-12-01T03:37:04.992Z,18.69
2016-12-01T03:38:05.329Z,18.67
2016-12-01T03:39:05.050Z,18.69
2016-12-01T03:40:05.407Z,18.73
2016-12-01T03:41:05.394Z,18.76
2016-12-01T03:42:05.127Z,18.78
2016-12-01T03:43:05.153Z,18.7
2016-12-01T03:44:05.789Z,18.73
2016-12-01T03:45:05.514Z,18.66
2016-12-01T03:46:05.546Z,18.62
2016-12-01T03:47:05.861Z,18.69
2016-12-01T03:48:05.579Z,18.63
2016-12-01T03:49:05.625Z,18.62
2016-12-01T03:50:05.933Z,18.66
2016-12-01T03:51:05.665Z,18.62
2016-12-01T03:52:05.994Z,18.65
2016-12-01T03:53:05.720Z,18.63
2016-12-01T03:54:05.776Z,18.69
2016-12-01T03:55:06.058Z,18.63
2016-12-01T03:56:05.805Z,18.6
2016-12-01T03:57:05.510Z,18.63
2016-12-01T03:58:05.842Z,18.65
2016-12-01T03:59:06.169Z,18.63
2016-12-01T04:00:05.896Z,18.62
2016-12-01T04:01:05.619Z,18.65
2016-12-01T04:02:06.255Z,18.6
2016-12-01T04:03:05.969Z,18.62
2016-12-01T04:04:06.306Z,18.62
2016-12-01T04:05:06.024Z,18.6
2016-12-01T04:06:05.756Z,18.6
2016-12-01T04:07:06.393Z,18.57
2016-12-01T04:08:06.108Z,18.55
2016-12-01T04:09:05.821Z,18.58
2016-12-01T04:10:06.147Z,18.62
2016-12-01T04:11:05.870Z,18.63
2016-12-01T04:12:06.215Z,18.65
2016-12-01T04:13:06.232Z,18.58
2016-12-01T04:14:06.256Z,18.6
2016-12-01T04:15:06.584Z,18.58
2016-12-01T04:16:06.313Z,18.6
2016-12-01T04:17:06.026Z,18.52
2016-12-01T04:18:06.666Z,18.58
2016-12-01T04:19:06.391Z,18.57
2016-12-01T04:20:06.416Z,18.63
2016-12-01T04:21:06.437Z,18.55
2016-12-01T04:22:06.767Z,18.54
2016-12-01T04:23:06.481Z,18.48
2016-12-01T04:24:06.214Z,18.6
2016-12-01T04:25:06.543Z,18.44
2016-12-01T04:26:06.571Z,18.47
2016-12-01T04:27:06.296Z,18.5
2016-12-01T04:28:06.924Z,18.54
2016-12-01T04:29:06.641Z,18.48
2016-12-01T04:30:06.667Z,18.5
2016-12-01T04:31:06.998Z,18.47
2016-12-01T04:32:06.730Z,18.47
2016-12-01T04:33:07.050Z,18.48
2016-12-01T04:34:07.079Z,18.48
2016-12-01T04:35:06.804Z,18.5
2016-12-01T04:36:07.138Z,18.48
2016-12-01T04:37:06.537Z,18.55
2016-12-01T04:38:06.590Z,18.5
2016-12-01T04:39:06.590Z,18.57
2016-12-01T04:40:07.235Z,18.48
2016-12-01T04:41:06.965Z,18.48
2016-12-01T04:42:07.291Z,18.42
2016-12-01T04:43:06.712Z,18.48
2016-12-01T04:44:06.719Z,18.5
2016-12-01T04:45:06.754Z,18.44
2016-12-01T04:46:07.110Z,18.48
2016-12-01T04:47:07.107Z,18.41
2016-12-01T04:48:06.836Z,18.47
2016-12-01T04:49:06.848Z,18.48
2016-12-01T04:50:07.492Z,18.47
2016-12-01T04:51:07.205Z,18.42
2016-12-01T04:52:07.238Z,18.42
2016-12-01T04:53:06.964Z,18.42
2016-12-01T04:54:07.279Z,18.44
2016-12-01T04:55:07.324Z,18.42
2016-12-01T04:56:07.640Z,18.42
2016-12-01T04:57:07.667Z,18.37
2016-12-01T04:58:07.702Z,18.44
2016-12-01T04:59:07.418Z,18.45
2016-12-01T05:00:07.443Z,18.41
2016-12-01T05:01:07.776Z,18.37
2016-12-01T05:02:07.504Z,18.41
2016-12-01T05:03:07.521Z,18.42
2016-12-01T05:04:07.853Z,18.33
2016-12-01T05:05:07.270Z,18.39
2016-12-01T05:06:07.599Z,18.33
2016-12-01T05:07:07.323Z,18.36
2016-12-01T05:08:07.947Z,18.32
2016-12-01T05:09:07.664Z,18.32
2016-12-01T05:10:08.001Z,18.32
2016-12-01T05:11:07.730Z,18.36
2016-12-01T05:12:07.450Z,18.29
2016-12-01T05:13:07.779Z,18.33
2016-12-01T05:14:07.813Z,18.29
2016-12-01T05:15:08.132Z,18.33
2016-12-01T05:16:07.865Z,18.26
2016-12-01T05:17:07.877Z,18.26
2016-12-01T05:18:07.647Z,18.29
2016-12-01T05:19:07.932Z,18.27
2016-12-01T05:20:07.960Z,18.37
2016-12-01T05:21:07.983Z,18.33
2016-12-01T05:22:08.009Z,18.29
2016-12-01T05:23:07.722Z,18.27
2016-12-01T05:24:08.064Z,18.36
2016-12-01T05:25:08.079Z,18.33
2016-12-01T05:26:08.428Z,18.32
2016-12-01T05:27:08.135Z,18.36
2016-12-01T05:28:08.169Z,18.33
2016-12-01T05:29:07.881Z,18.35
2016-12-01T05:30:08.210Z,18.36
2016-12-01T05:31:08.244Z,18.32
2016-12-01T05:32:08.264Z,18.39
2016-12-01T05:33:08.288Z,18.44
2016-12-01T05:34:08.324Z,18.42
2016-12-01T05:35:08.338Z,18.41
2016-12-01T05:36:08.361Z,18.48
2016-12-01T05:37:08.087Z,18.51
2016-12-01T05:38:08.111Z,18.52
2016-12-01T05:39:08.436Z,18.51
2016-12-01T05:40:08.473Z,18.5
2016-12-01T05:41:08.806Z,18.62
2016-12-01T05:42:08.826Z,18.6
2016-12-01T05:43:08.569Z,18.63
2016-12-01T05:44:08.591Z,18.57
2016-12-01T05:45:08.912Z,18.62
2016-12-01T05:46:08.329Z,18.65
2016-12-01T05:47:08.953Z,18.65
2016-12-01T05:48:08.374Z,18.62
2016-12-01T05:49:09.001Z,18.75
2016-12-01T05:50:09.047Z,18.67
2016-12-01T05:51:08.775Z,18.67
2016-12-01T05:52:08.476Z,18.73
2016-12-01T05:53:08.809Z,18.75
2016-12-01T05:54:08.546Z,18.73
2016-12-01T05:55:08.854Z,18.8
2016-12-01T05:56:09.190Z,18.8
2016-12-01T05:57:08.632Z,18.82
2016-12-01T05:58:08.625Z,18.78
2016-12-01T05:59:08.657Z,18.87
2016-12-01T06:00:08.986Z,18.85
2016-12-01T06:01:09.310Z,18.9
2016-12-01T06:02:09.047Z,18.9
2016-12-01T06:03:09.060Z,18.91
2016-12-01T06:04:09.085Z,18.92
2016-12-01T06:05:09.117Z,18.91
2016-12-01T06:06:08.833Z,18.9
2016-12-01T06:07:08.857Z,18.9
2016-12-01T06:08:09.188Z,18.94
2016-12-01T06:09:09.519Z,18.95
2016-12-01T06:10:09.244Z,19
2016-12-01T06:11:09.296Z,19.13
2016-12-01T06:12:09.289Z,19
2016-12-01T06:13:09.631Z,19.04
2016-12-01T06:14:09.051Z,19.14
2016-12-01T06:15:09.371Z,19.08
2016-12-01T06:16:09.410Z,19.14
2016-12-01T06:17:09.728Z,19.06
2016-12-01T06:18:09.445Z,19.1
2016-12-01T06:19:09.170Z,19.19
2016-12-01T06:20:09.207Z,19.08
2016-12-01T06:21:09.531Z,19.21
2016-12-01T06:22:09.552Z,19.14
2016-12-01T06:23:09.881Z,19.13
2016-12-01T06:24:09.313Z,19.18
2016-12-01T06:25:09.326Z,19.16
2016-12-01T06:26:09.655Z,19.16
2016-12-01T06:27:09.983Z,19.18
2016-12-01T06:28:09.412Z,19.19
2016-12-01T06:29:10.043Z,19.11
2016-12-01T06:30:09.770Z,19.13
2016-12-01T06:31:10.102Z,19.16
2016-12-01T06:32:09.814Z,19.14
2016-12-01T06:33:09.835Z,19.23
2016-12-01T06:34:09.864Z,19.19
2016-12-01T06:35:09.589Z,19.29
2016-12-01T06:36:09.619Z,19.29
2016-12-01T06:37:09.946Z,19.21
2016-12-01T06:38:09.981Z,19.19
2016-12-01T06:39:09.989Z,19.29
2016-12-01T06:40:10.036Z,19.21
2016-12-01T06:41:10.049Z,19.29
2016-12-01T06:42:10.073Z,19.26
2016-12-01T06:43:09.802Z,19.21
2016-12-01T06:44:10.143Z,19.22
2016-12-01T06:45:10.160Z,19.18
2016-12-01T06:46:10.180Z,19.14
2016-12-01T06:47:10.193Z,19.21
2016-12-01T06:48:09.961Z,19.18
2016-12-01T06:49:10.250Z,19.23
2016-12-01T06:50:09.975Z,19.19
2016-12-01T06:51:10.607Z,19.14
2016-12-01T06:52:10.341Z,19.16
2016-12-01T06:53:10.360Z,19.19
2016-12-01T06:54:10.686Z,19.13
2016-12-01T06:55:10.402Z,19.29
2016-12-01T06:56:10.147Z,19.33
2016-12-01T06:57:10.188Z,19.22
2016-12-01T06:58:10.493Z,19.29
2016-12-01T06:59:10.518Z,19.21
2016-12-01T07:00:10.254Z,19.14
2016-12-01T07:01:10.887Z,19.21
2016-12-01T07:02:10.592Z,19.21
2016-12-01T07:03:10.924Z,19.29
2016-12-01T07:04:10.640Z,19.29
2016-12-01T07:05:10.985Z,19.25
2016-12-01T07:06:10.702Z,19.29
2016-12-01T07:07:10.419Z,19.19
2016-12-01T07:08:11.048Z,19.31
2016-12-01T07:09:11.076Z,19.32
2016-12-01T07:10:10.815Z,19.25
2016-12-01T07:11:10.818Z,19.32
2016-12-01T07:12:10.863Z,19.28
2016-12-01T07:13:11.181Z,19.28
2016-12-01T07:14:10.608Z,19.25
2016-12-01T07:15:10.629Z,19.31
2016-12-01T07:16:10.956Z,19.28
2016-12-01T07:17:10.993Z,19.28
2016-12-01T07:18:10.719Z,19.23
2016-12-01T07:19:11.052Z,19.31
2016-12-01T07:20:11.383Z,19.29
2016-12-01T07:21:10.793Z,19.32
2016-12-01T07:22:11.144Z,19.4
2016-12-01T07:23:11.450Z,19.36
2016-12-01T07:24:11.171Z,19.31
2016-12-01T07:25:11.491Z,19.26
2016-12-01T07:26:11.224Z,19.43
2016-12-01T07:27:11.244Z,19.31
2016-12-01T07:28:11.580Z,19.25
2016-12-01T07:29:10.992Z,19.39
2016-12-01T07:30:11.317Z,19.41
2016-12-01T07:31:11.356Z,19.32
2016-12-01T07:32:11.676Z,19.37
2016-12-01T07:33:11.101Z,19.33
2016-12-01T07:34:11.430Z,19.4
2016-12-01T07:35:11.157Z,19.39
2016-12-01T07:36:11.806Z,19.39
2016-12-01T07:37:11.208Z,19.32
2016-12-01T07:38:11.249Z,19.36
2016-12-01T07:39:11.553Z,19.39
2016-12-01T07:40:11.582Z,19.29
2016-12-01T07:41:11.910Z,19.36
2016-12-01T07:42:11.359Z,19.29
2016-12-01T07:43:11.356Z,19.4
2016-12-01T07:44:12.010Z,19.37
2016-12-01T07:45:12.013Z,19.31
2016-12-01T07:46:11.447Z,19.4
2016-12-01T07:47:11.762Z,19.4
2016-12-01T07:48:12.100Z,19.31
2016-12-01T07:49:11.824Z,19.26
2016-12-01T07:50:12.160Z,19.31
2016-12-01T07:51:11.567Z,19.39
2016-12-01T07:52:12.216Z,19.28
2016-12-01T07:53:11.918Z,19.29
2016-12-01T07:54:11.951Z,19.36
2016-12-01T07:55:11.972Z,19.29
2016-12-01T07:56:12.002Z,19.32
2016-12-01T07:57:12.041Z,19.29
2016-12-01T07:58:12.354Z,19.37
2016-12-01T07:59:12.099Z,19.29
2016-12-01T08:00:12.164Z,19.32
2016-12-01T08:01:11.832Z,19.31
2016-12-01T08:02:12.469Z,19.26
2016-12-01T08:03:12.181Z,19.32
2016-12-01T08:04:12.522Z,19.26
2016-12-01T08:05:12.247Z,19.29
2016-12-01T08:06:12.567Z,19.28
2016-12-01T08:07:12.288Z,19.31
2016-12-01T08:08:12.329Z,19.25
2016-12-01T08:09:12.651Z,19.28
2016-12-01T08:10:12.666Z,19.23
2016-12-01T08:11:12.395Z,19.36
2016-12-01T08:12:12.727Z,19.26
2016-12-01T08:13:12.460Z,19.28
2016-12-01T08:14:12.777Z,19.37
2016-12-01T08:15:12.498Z,19.39
2016-12-01T08:16:12.826Z,19.31
2016-12-01T08:17:12.547Z,19.36
2016-12-01T08:18:12.597Z,19.37
2016-12-01T08:19:12.912Z,19.31
2016-12-01T08:20:12.941Z,19.41
2016-12-01T08:21:12.961Z,19.33
2016-12-01T08:22:12.699Z,19.31
2016-12-01T08:23:13.019Z,19.36
2016-12-01T08:24:12.744Z,19.33
2016-12-01T08:25:12.764Z,19.37
2016-12-01T08:26:12.795Z,19.43
2016-12-01T08:27:12.818Z,19.41
2016-12-01T08:28:13.141Z,19.43
2016-12-01T08:29:13.166Z,19.44
2016-12-01T08:30:12.895Z,19.41
2016-12-01T08:31:12.924Z,19.46
2016-12-01T08:32:13.265Z,19.44
2016-12-01T08:33:12.972Z,19.37
2016-12-01T08:34:13.002Z,19.47
2016-12-01T08:35:13.327Z,19.39
2016-12-01T08:36:13.355Z,19.43
2016-12-01T08:37:13.688Z,19.43
2016-12-01T08:38:13.116Z,19.43
2016-12-01T08:39:13.130Z,19.43
2016-12-01T08:40:13.153Z,19.43
2016-12-01T08:41:12.890Z,19.43
2016-12-01T08:42:13.207Z,19.41
2016-12-01T08:43:13.243Z,19.44
2016-12-01T08:44:13.247Z,19.28
2016-12-01T08:45:13.597Z,19
2016-12-01T08:46:13.625Z,18.57
2016-12-01T08:47:13.647Z,18.12
2016-12-01T08:48:13.663Z,17.71
2016-12-01T08:49:13.383Z,17.51
2016-12-01T08:50:13.716Z,17.23
2016-12-01T08:51:13.741Z,16.86
2016-12-01T08:52:13.467Z,16.53
2016-12-01T08:53:13.181Z,16.39
2016-12-01T08:54:13.523Z,16.3
2016-12-01T08:55:13.843Z,16.23
2016-12-01T08:56:13.283Z,16.41
2016-12-01T08:57:13.292Z,16.49
2016-12-01T08:58:13.316Z,16.73
2016-12-01T08:59:13.954Z,16.89
2016-12-01T09:00:13.995Z,17.07
2016-12-01T09:01:14.008Z,17.25
2016-12-01T09:02:13.732Z,17.34
2016-12-01T09:03:13.758Z,17.51
2016-12-01T09:04:13.787Z,17.68
2016-12-01T09:05:14.106Z,17.66
2016-12-01T09:06:14.142Z,17.77
2016-12-01T09:07:14.155Z,17.96
2016-12-01T09:08:13.884Z,18
2016-12-01T09:09:13.601Z,18.12
2016-12-01T09:10:14.026Z,18.11
2016-12-01T09:11:13.950Z,18.23
2016-12-01T09:12:13.983Z,18.25
2016-12-01T09:13:13.999Z,18.32
2016-12-01T09:14:14.342Z,18.37
2016-12-01T09:15:14.362Z,18.44
2016-12-01T09:16:14.086Z,18.51
2016-12-01T09:17:14.110Z,18.57
2016-12-01T09:18:14.436Z,18.65
2016-12-01T09:19:14.456Z,18.63
2016-12-01T09:20:14.496Z,18.72
2016-12-01T09:21:13.913Z,18.75
2016-12-01T09:22:13.962Z,18.84
2016-12-01T09:23:14.566Z,18.87
2016-12-01T09:24:14.288Z,18.76
2016-12-01T09:25:14.317Z,18.92
2016-12-01T09:26:14.346Z,18.92
2016-12-01T09:27:14.677Z,18.88
2016-12-01T09:28:14.389Z,18.9
2016-12-01T09:29:14.419Z,18.91
2016-12-01T09:30:14.444Z,18.92
2016-12-01T09:31:14.468Z,18.91
2016-12-01T09:32:14.511Z,18.92
2016-12-01T09:33:14.838Z,18.92
2016-12-01T09:34:14.551Z,18.94
2016-12-01T09:35:14.271Z,18.99
2016-12-01T09:36:14.319Z,18.98
2016-12-01T09:37:14.933Z,18.99
2016-12-01T09:38:14.658Z,18.99
2016-12-01T09:39:14.979Z,19.04
2016-12-01T09:40:14.699Z,19.02
2016-12-01T09:41:15.029Z,19.06
2016-12-01T09:42:14.757Z,19.06
2016-12-01T09:43:14.477Z,19
2016-12-01T09:44:14.818Z,18.99
2016-12-01T09:45:14.527Z,19.1
2016-12-01T09:46:14.892Z,19.1
2016-12-01T09:47:15.183Z,19.06
2016-12-01T09:48:14.908Z,18.94
2016-12-01T09:49:15.241Z,18.99
2016-12-01T09:50:14.967Z,19.08
2016-12-01T09:51:14.683Z,18.99
2016-12-01T09:52:15.327Z,18.92
2016-12-01T09:53:15.353Z,18.98
2016-12-01T09:54:15.077Z,19.02
2016-12-01T09:55:15.402Z,19.02
2016-12-01T09:56:15.422Z,18.95
2016-12-01T09:57:15.143Z,19
2016-12-01T09:58:15.169Z,18.95
2016-12-01T09:59:15.205Z,19.06
2016-12-01T10:00:15.237Z,19
2016-12-01T10:01:15.250Z,18.98
2016-12-01T10:02:14.975Z,19.1
2016-12-01T10:03:15.304Z,19.13
2016-12-01T10:04:15.636Z,19.11
2016-12-01T10:05:15.354Z,19.02
2016-12-01T10:06:15.699Z,19.11
2016-12-01T10:07:15.109Z,19.06
2016-12-01T10:08:15.127Z,19.13
2016-12-01T10:09:15.464Z,19.11
2016-12-01T10:10:15.186Z,19.19
2016-12-01T10:11:15.826Z,19.08
2016-12-01T10:12:15.849Z,19.11
2016-12-01T10:13:15.564Z,19.07
2016-12-01T10:14:15.287Z,19.11
2016-12-01T10:15:15.317Z,19.14
2016-12-01T10:16:15.650Z,19.11
2016-12-01T10:17:15.382Z,19.13
2016-12-01T10:18:15.399Z,19.13
2016-12-01T10:19:15.732Z,19.13
2016-12-01T10:20:15.445Z,19.06
2016-12-01T10:21:15.777Z,19.13
2016-12-01T10:22:16.101Z,19.18
2016-12-01T10:23:15.835Z,19.13
2016-12-01T10:24:15.547Z,19.13
2016-12-01T10:25:15.920Z,19.07
2016-12-01T10:26:16.232Z,19.06
2016-12-01T10:27:15.929Z,19.11
2016-12-01T10:28:15.659Z,19
2016-12-01T10:29:15.685Z,19.08
2016-12-01T10:30:15.708Z,19
2016-12-01T10:31:16.045Z,18.99
2016-12-01T10:32:16.065Z,18.99
2016-12-01T10:33:16.084Z,19.06
2016-12-01T10:34:15.810Z,19.06
2016-12-01T10:35:16.147Z,18.99
2016-12-01T10:36:16.169Z,19.07
2016-12-01T10:37:16.196Z,19.02
2016-12-01T10:38:15.917Z,19
2016-12-01T10:39:16.254Z,18.94
2016-12-01T10:40:15.966Z,18.98
2016-12-01T10:41:15.999Z,18.99
2016-12-01T10:42:16.339Z,18.9
2016-12-01T10:43:16.662Z,19.02
2016-12-01T10:44:16.388Z,19.02
2016-12-01T10:45:16.410Z,19.02
2016-12-01T10:46:16.747Z,19.02
2016-12-01T10:47:16.153Z,18.98
2016-12-01T10:48:16.173Z,18.94
2016-12-01T10:49:16.208Z,18.98
2016-12-01T10:50:16.233Z,18.91
2016-12-01T10:51:16.558Z,18.95
2016-12-01T10:52:16.299Z,18.94
2016-12-01T10:53:16.316Z,18.9
2016-12-01T10:54:16.329Z,18.94
2016-12-01T10:55:16.364Z,18.92
2016-12-01T10:56:16.699Z,18.91
2016-12-01T10:57:16.415Z,18.91
2016-12-01T10:58:16.756Z,18.95
2016-12-01T10:59:16.776Z,18.9
2016-12-01T11:00:16.791Z,18.95
2016-12-01T11:01:16.825Z,18.92
2016-12-01T11:02:16.851Z,18.91
2016-12-01T11:03:16.568Z,18.9
2016-12-01T11:04:16.911Z,18.87
2016-12-01T11:05:17.232Z,18.9
2016-12-01T11:06:16.661Z,18.9
2016-12-01T11:07:16.681Z,18.87
2016-12-01T11:08:17.010Z,18.84
2016-12-01T11:09:17.030Z,18.85
2016-12-01T11:10:16.759Z,18.88
2016-12-01T11:11:16.783Z,18.87
2016-12-01T11:12:17.113Z,18.9
2016-12-01T11:13:17.136Z,18.76
2016-12-01T11:14:17.472Z,18.81
2016-12-01T11:15:16.906Z,18.78
2016-12-01T11:16:17.525Z,18.78
2016-12-01T11:17:17.247Z,18.8
2016-12-01T11:18:17.278Z,18.91
2016-12-01T11:19:17.298Z,18.76
2016-12-01T11:20:17.014Z,18.85
2016-12-01T11:21:17.043Z,18.76
2016-12-01T11:22:17.372Z,18.81
2016-12-01T11:23:17.102Z,18.8
2016-12-01T11:24:17.129Z,18.8
2016-12-01T11:25:17.450Z,18.78
2016-12-01T11:26:17.479Z,18.9
2016-12-01T11:27:17.502Z,18.8
2016-12-01T11:28:17.229Z,18.81
2016-12-01T11:29:17.252Z,18.85
2016-12-01T11:30:17.601Z,18.88
2016-12-01T11:31:17.619Z,18.85
2016-12-01T11:32:17.643Z,18.84
2016-12-01T11:33:17.360Z,18.82
2016-12-01T11:34:17.988Z,18.81
2016-12-01T11:35:18.022Z,18.78
2016-12-01T11:36:17.771Z,18.75
2016-12-01T11:37:17.471Z,18.81
2016-12-01T11:38:18.093Z,18.87
2016-12-01T11:39:17.823Z,18.81
2016-12-01T11:40:17.843Z,18.8
2016-12-01T11:41:17.569Z,18.76
2016-12-01T11:42:17.894Z,18.76
2016-12-01T11:43:17.923Z,18.76
2016-12-01T11:44:18.252Z,18.78
2016-12-01T11:45:17.670Z,18.72
2016-12-01T11:46:18.308Z,18.78
2016-12-01T11:47:17.725Z,18.8
2016-12-01T11:48:18.059Z,18.81
2016-12-01T11:49:17.783Z,18.75
2016-12-01T11:50:18.132Z,18.76
2016-12-01T11:51:18.137Z,18.81
2016-12-01T11:52:18.157Z,18.78
2016-12-01T11:53:18.174Z,18.81
2016-12-01T11:54:18.206Z,18.82
2016-12-01T11:55:18.243Z,18.73
2016-12-01T11:56:18.272Z,18.73
2016-12-01T11:57:17.993Z,18.75
2016-12-01T11:58:18.322Z,18.75
2016-12-01T11:59:18.038Z,18.72
2016-12-01T12:00:18.671Z,18.72
2016-12-01T12:01:18.396Z,18.75
2016-12-01T12:02:18.424Z,18.72
2016-12-01T12:03:18.454Z,18.7
2016-12-01T12:04:18.475Z,18.81
2016-12-01T12:05:18.195Z,18.8
2016-12-01T12:06:18.828Z,18.76
2016-12-01T12:07:18.552Z,18.7
2016-12-01T12:08:18.285Z,18.75
2016-12-01T12:09:18.914Z,18.76
2016-12-01T12:10:18.638Z,18.72
2016-12-01T12:11:18.667Z,18.72
2016-12-01T12:12:18.376Z,18.73
2016-12-01T12:13:18.400Z,18.72
2016-12-01T12:14:18.425Z,18.72
2016-12-01T12:15:18.462Z,18.7
2016-12-01T12:16:18.492Z,18.7
2016-12-01T12:17:19.115Z,18.76
2016-12-01T12:18:18.870Z,18.72
2016-12-01T12:19:18.567Z,18.72
2016-12-01T12:20:18.585Z,18.7
2016-12-01T12:21:18.922Z,18.7
2016-12-01T12:22:18.659Z,18.73
2016-12-01T12:23:18.979Z,18.7
2016-12-01T12:24:18.700Z,18.7
2016-12-01T12:25:18.726Z,18.72
2016-12-01T12:26:19.046Z,18.69
2016-12-01T12:27:19.083Z,18.69
2016-12-01T12:28:19.108Z,18.72
2016-12-01T12:29:18.828Z,18.78
2016-12-01T12:30:19.457Z,18.7
2016-12-01T12:31:18.874Z,18.73
2016-12-01T12:32:19.502Z,18.69
2016-12-01T12:33:19.238Z,18.7
2016-12-01T12:34:18.961Z,18.75
2016-12-01T12:35:18.976Z,18.67
2016-12-01T12:36:19.625Z,18.73
2016-12-01T12:37:19.038Z,18.7
2016-12-01T12:38:19.371Z,18.75
2016-12-01T12:39:19.695Z,18.7
2016-12-01T12:40:19.408Z,18.72
2016-12-01T12:41:19.445Z,18.6
2016-12-01T12:42:19.786Z,18.63
2016-12-01T12:43:19.189Z,18.66
2016-12-01T12:44:19.514Z,18.75
2016-12-01T12:45:19.563Z,18.75
2016-12-01T12:46:19.575Z,18.75
2016-12-01T12:47:19.596Z,18.7
2016-12-01T12:48:19.321Z,18.73
2016-12-01T12:49:19.661Z,18.69
2016-12-01T12:50:19.671Z,18.73
2016-12-01T12:51:19.710Z,18.67
2016-12-01T12:52:20.060Z,18.73
2016-12-01T12:53:20.047Z,18.73
2016-12-01T12:54:19.784Z,18.67
2016-12-01T12:55:20.105Z,18.7
2016-12-01T12:56:19.842Z,18.73
2016-12-01T12:57:19.858Z,18.75